sensor_id;sensor_type;location;lat;lon;timestamp;noise_LAeq;noise_LA_min;noise_LA_max;noise_LA01;noise_LA95
40103;Laerm;25814;48.550;9.108;2023-10-08T00:02:44;30.10;28.53;33.22;;
40103;Laerm;25814;48.550;9.108;2023-10-08T00:05:10;32.35;28.82;44.78;;
40103;Laerm;25814;48.550;9.108;2023-10-08T00:07:39;30.53;28.59;37.74;;
40103;Laerm;25814;48.550;9.108;2023-10-08T00:10:08;29.77;28.54;38.19;;
40103;Laerm;25814;48.550;9.108;2023-10-08T00:12:34;29.44;28.40;31.31;;
40103;Laerm;25814;48.550;9.108;2023-10-08T00:15:00;29.91;28.56;33.84;;
40103;Laerm;25814;48.550;9.108;2023-10-08T00:17:26;29.83;28.81;32.62;;
40103;Laerm;25814;48.550;9.108;2023-10-08T00:19:52;29.92;28.64;36.92;;
40103;Laerm;25814;48.550;9.108;2023-10-08T00:22:18;29.66;28.61;34.78;;
40103;Laerm;25814;48.550;9.108;2023-10-08T00:24:45;33.53;28.59;46.75;;
40103;Laerm;25814;48.550;9.108;2023-10-08T00:27:12;30.24;29.00;37.04;;
40103;Laerm;25814;48.550;9.108;2023-10-08T00:29:42;30.11;28.72;34.90;;
40103;Laerm;25814;48.550;9.108;2023-10-08T00:32:09;29.79;28.66;35.11;;
40103;Laerm;25814;48.550;9.108;2023-10-08T00:34:42;30.05;28.64;35.90;;
40103;Laerm;25814;48.550;9.108;2023-10-08T00:37:11;30.53;28.99;41.73;;
40103;Laerm;25814;48.550;9.108;2023-10-08T00:39:41;31.11;29.18;41.09;;
40103;Laerm;25814;48.550;9.108;2023-10-08T00:42:07;30.13;28.55;34.84;;
40103;Laerm;25814;48.550;9.108;2023-10-08T00:44:35;29.63;28.46;34.49;;
40103;Laerm;25814;48.550;9.108;2023-10-08T00:47:10;30.06;28.61;36.47;;
40103;Laerm;25814;48.550;9.108;2023-10-08T00:49:37;30.14;28.45;35.02;;
40103;Laerm;25814;48.550;9.108;2023-10-08T00:52:03;31.03;28.85;36.30;;
40103;Laerm;25814;48.550;9.108;2023-10-08T00:54:39;30.62;28.84;35.64;;
40103;Laerm;25814;48.550;9.108;2023-10-08T00:57:16;30.09;28.73;34.86;;
40103;Laerm;25814;48.550;9.108;2023-10-08T00:59:46;31.49;29.22;42.02;;
40103;Laerm;25814;48.550;9.108;2023-10-08T01:02:19;30.95;28.50;36.15;;
40103;Laerm;25814;48.550;9.108;2023-10-08T01:04:49;29.89;28.30;34.27;;
40103;Laerm;25814;48.550;9.108;2023-10-08T01:07:16;30.01;28.57;38.08;;
40103;Laerm;25814;48.550;9.108;2023-10-08T01:09:44;30.87;28.69;37.03;;
40103;Laerm;25814;48.550;9.108;2023-10-08T01:12:20;30.01;28.55;35.53;;
40103;Laerm;25814;48.550;9.108;2023-10-08T01:14:59;29.66;28.59;32.37;;
40103;Laerm;25814;48.550;9.108;2023-10-08T01:17:44;30.57;28.73;35.54;;
40103;Laerm;25814;48.550;9.108;2023-10-08T01:20:23;30.12;28.59;35.98;;
40103;Laerm;25814;48.550;9.108;2023-10-08T01:23:09;33.21;28.87;45.31;;
40103;Laerm;25814;48.550;9.108;2023-10-08T01:25:39;38.92;28.73;53.44;;
40103;Laerm;25814;48.550;9.108;2023-10-08T01:28:07;38.83;28.59;52.89;;
40103;Laerm;25814;48.550;9.108;2023-10-08T01:30:51;29.88;28.62;33.77;;
40103;Laerm;25814;48.550;9.108;2023-10-08T01:33:19;30.69;28.49;38.95;;
40103;Laerm;25814;48.550;9.108;2023-10-08T01:35:53;30.00;28.63;34.83;;
40103;Laerm;25814;48.550;9.108;2023-10-08T01:38:20;29.92;28.56;36.83;;
40103;Laerm;25814;48.550;9.108;2023-10-08T01:40:51;31.78;28.67;43.73;;
40103;Laerm;25814;48.550;9.108;2023-10-08T01:43:18;29.65;28.45;36.35;;
40103;Laerm;25814;48.550;9.108;2023-10-08T01:45:46;29.65;28.51;34.21;;
40103;Laerm;25814;48.550;9.108;2023-10-08T01:48:14;29.83;28.66;33.41;;
40103;Laerm;25814;48.550;9.108;2023-10-08T01:50:48;29.68;28.48;32.85;;
40103;Laerm;25814;48.550;9.108;2023-10-08T01:53:15;30.16;28.75;33.37;;
40103;Laerm;25814;48.550;9.108;2023-10-08T01:55:41;29.54;28.05;32.32;;
40103;Laerm;25814;48.550;9.108;2023-10-08T01:58:18;29.67;28.54;37.17;;
40103;Laerm;25814;48.550;9.108;2023-10-08T02:00:45;30.18;28.58;35.63;;
40103;Laerm;25814;48.550;9.108;2023-10-08T02:03:13;29.73;28.59;32.98;;
40103;Laerm;25814;48.550;9.108;2023-10-08T02:05:48;29.83;28.60;33.68;;
40103;Laerm;25814;48.550;9.108;2023-10-08T02:08:15;30.36;28.78;35.36;;
40103;Laerm;25814;48.550;9.108;2023-10-08T02:10:43;30.49;28.87;39.75;;
40103;Laerm;25814;48.550;9.108;2023-10-08T02:13:13;29.67;28.29;35.11;;
40103;Laerm;25814;48.550;9.108;2023-10-08T02:15:49;30.23;28.80;37.54;;
40103;Laerm;25814;48.550;9.108;2023-10-08T02:18:19;29.92;28.73;36.39;;
40103;Laerm;25814;48.550;9.108;2023-10-08T02:20:45;32.93;28.45;44.84;;
40103;Laerm;25814;48.550;9.108;2023-10-08T02:23:12;29.65;28.64;32.60;;
40103;Laerm;25814;48.550;9.108;2023-10-08T02:25:40;30.92;28.93;43.03;;
40103;Laerm;25814;48.550;9.108;2023-10-08T02:28:07;29.92;28.72;34.53;;
40103;Laerm;25814;48.550;9.108;2023-10-08T02:30:38;30.09;28.70;33.11;;
40103;Laerm;25814;48.550;9.108;2023-10-08T02:33:07;30.30;28.66;35.16;;
40103;Laerm;25814;48.550;9.108;2023-10-08T02:35:46;29.95;28.66;34.45;;
40103;Laerm;25814;48.550;9.108;2023-10-08T02:38:16;29.93;28.68;36.48;;
40103;Laerm;25814;48.550;9.108;2023-10-08T02:40:42;29.70;28.64;36.86;;
40103;Laerm;25814;48.550;9.108;2023-10-08T02:43:14;29.76;28.62;34.72;;
40103;Laerm;25814;48.550;9.108;2023-10-08T02:45:41;29.84;28.76;35.50;;
40103;Laerm;25814;48.550;9.108;2023-10-08T02:48:12;30.06;28.60;35.66;;
40103;Laerm;25814;48.550;9.108;2023-10-08T02:50:47;36.08;28.99;52.42;;
40103;Laerm;25814;48.550;9.108;2023-10-08T02:53:13;30.67;28.42;40.80;;
40103;Laerm;25814;48.550;9.108;2023-10-08T02:55:51;29.93;28.57;35.15;;
40103;Laerm;25814;48.550;9.108;2023-10-08T02:58:17;29.58;28.45;34.16;;
40103;Laerm;25814;48.550;9.108;2023-10-08T03:00:47;29.53;28.38;36.15;;
40103;Laerm;25814;48.550;9.108;2023-10-08T03:03:16;29.67;28.49;34.00;;
40103;Laerm;25814;48.550;9.108;2023-10-08T03:05:48;29.97;28.50;45.62;;
40103;Laerm;25814;48.550;9.108;2023-10-08T03:08:17;29.71;28.42;33.00;;
40103;Laerm;25814;48.550;9.108;2023-10-08T03:10:47;31.38;28.90;36.74;;
40103;Laerm;25814;48.550;9.108;2023-10-08T03:13:23;30.49;28.63;38.27;;
40103;Laerm;25814;48.550;9.108;2023-10-08T03:15:51;29.88;28.72;34.99;;
40103;Laerm;25814;48.550;9.108;2023-10-08T03:18:27;30.73;29.07;45.34;;
40103;Laerm;25814;48.550;9.108;2023-10-08T03:21:06;29.91;28.84;32.19;;
40103;Laerm;25814;48.550;9.108;2023-10-08T03:24:07;30.69;28.91;37.96;;
40103;Laerm;25814;48.550;9.108;2023-10-08T03:26:55;30.60;29.01;46.12;;
40103;Laerm;25814;48.550;9.108;2023-10-08T03:29:32;30.70;29.05;37.05;;
40103;Laerm;25814;48.550;9.108;2023-10-08T03:31:57;31.11;28.89;37.25;;
40103;Laerm;25814;48.550;9.108;2023-10-08T03:34:23;31.34;28.74;40.67;;
40103;Laerm;25814;48.550;9.108;2023-10-08T03:36:59;29.84;28.70;32.02;;
40103;Laerm;25814;48.550;9.108;2023-10-08T03:39:30;30.46;28.77;48.19;;
40103;Laerm;25814;48.550;9.108;2023-10-08T03:42:20;30.00;28.71;39.15;;
40103;Laerm;25814;48.550;9.108;2023-10-08T03:44:51;30.58;29.15;33.31;;
40103;Laerm;25814;48.550;9.108;2023-10-08T03:47:18;30.08;28.82;38.78;;
40103;Laerm;25814;48.550;9.108;2023-10-08T03:49:46;29.81;28.78;32.23;;
40103;Laerm;25814;48.550;9.108;2023-10-08T03:52:12;29.87;28.61;35.54;;
40103;Laerm;25814;48.550;9.108;2023-10-08T03:54:38;30.19;28.71;47.11;;
40103;Laerm;25814;48.550;9.108;2023-10-08T03:57:09;30.20;28.58;36.32;;
40103;Laerm;25814;48.550;9.108;2023-10-08T03:59:43;29.85;28.48;33.21;;
40103;Laerm;25814;48.550;9.108;2023-10-08T04:02:13;48.37;28.92;66.17;;
40103;Laerm;25814;48.550;9.108;2023-10-08T04:04:41;30.18;28.93;39.10;;
40103;Laerm;25814;48.550;9.108;2023-10-08T04:07:19;30.53;28.90;36.13;;
40103;Laerm;25814;48.550;9.108;2023-10-08T04:10:05;33.74;29.33;43.21;;
40103;Laerm;25814;48.550;9.108;2023-10-08T04:12:34;30.24;28.90;32.63;;
40103;Laerm;25814;48.550;9.108;2023-10-08T04:15:01;30.29;29.01;47.26;;
40103;Laerm;25814;48.550;9.108;2023-10-08T04:17:33;34.63;29.00;46.08;;
40103;Laerm;25814;48.550;9.108;2023-10-08T04:20:10;30.84;29.16;40.96;;
40103;Laerm;25814;48.550;9.108;2023-10-08T04:22:55;30.32;28.71;39.36;;
40103;Laerm;25814;48.550;9.108;2023-10-08T04:25:21;31.16;28.78;50.21;;
40103;Laerm;25814;48.550;9.108;2023-10-08T04:27:47;39.06;29.05;54.10;;
40103;Laerm;25814;48.550;9.108;2023-10-08T04:30:15;36.25;30.09;47.72;;
40103;Laerm;25814;48.550;9.108;2023-10-08T04:32:42;33.95;29.32;44.16;;
40103;Laerm;25814;48.550;9.108;2023-10-08T04:35:08;36.29;29.82;46.61;;
40103;Laerm;25814;48.550;9.108;2023-10-08T04:37:40;34.92;29.33;49.21;;
40103;Laerm;25814;48.550;9.108;2023-10-08T04:40:07;30.82;28.84;38.54;;
40103;Laerm;25814;48.550;9.108;2023-10-08T04:42:42;30.99;28.92;46.32;;
40103;Laerm;25814;48.550;9.108;2023-10-08T04:45:13;30.90;29.03;36.94;;
40103;Laerm;25814;48.550;9.108;2023-10-08T04:47:42;30.57;28.99;37.88;;
40103;Laerm;25814;48.550;9.108;2023-10-08T04:50:08;31.01;29.34;34.83;;
40103;Laerm;25814;48.550;9.108;2023-10-08T04:52:41;30.96;29.21;39.99;;
40103;Laerm;25814;48.550;9.108;2023-10-08T04:55:26;35.85;29.17;46.59;;
40103;Laerm;25814;48.550;9.108;2023-10-08T04:57:55;33.87;29.19;53.50;;
40103;Laerm;25814;48.550;9.108;2023-10-08T05:00:22;33.20;29.49;38.36;;
40103;Laerm;25814;48.550;9.108;2023-10-08T05:03:07;31.07;28.79;48.25;;
40103;Laerm;25814;48.550;9.108;2023-10-08T05:05:42;31.40;28.80;53.38;;
40103;Laerm;25814;48.550;9.108;2023-10-08T05:08:12;34.20;29.35;50.48;;
40103;Laerm;25814;48.550;9.108;2023-10-08T05:10:39;38.58;29.97;53.04;;
40103;Laerm;25814;48.550;9.108;2023-10-08T05:13:26;32.83;29.16;40.66;;
40103;Laerm;25814;48.550;9.108;2023-10-08T05:16:00;30.70;29.28;36.03;;
40103;Laerm;25814;48.550;9.108;2023-10-08T05:18:58;31.52;29.59;49.94;;
40103;Laerm;25814;48.550;9.108;2023-10-08T05:21:50;34.53;29.18;53.51;;
40103;Laerm;25814;48.550;9.108;2023-10-08T05:24:18;31.32;29.25;41.58;;
40103;Laerm;25814;48.550;9.108;2023-10-08T05:26:53;39.58;29.23;61.94;;
40103;Laerm;25814;48.550;9.108;2023-10-08T05:29:39;32.62;30.14;41.00;;
40103;Laerm;25814;48.550;9.108;2023-10-08T05:32:17;33.72;30.07;49.65;;
40103;Laerm;25814;48.550;9.108;2023-10-08T05:35:04;48.80;30.79;65.45;;
40103;Laerm;25814;48.550;9.108;2023-10-08T05:37:48;38.34;29.66;58.54;;
40103;Laerm;25814;48.550;9.108;2023-10-08T05:40:27;32.41;29.76;46.96;;
40103;Laerm;25814;48.550;9.108;2023-10-08T05:43:19;35.47;29.71;54.32;;
40103;Laerm;25814;48.550;9.108;2023-10-08T05:46:12;33.66;29.35;49.09;;
40103;Laerm;25814;48.550;9.108;2023-10-08T05:48:47;32.07;29.73;48.47;;
40103;Laerm;25814;48.550;9.108;2023-10-08T05:51:31;38.61;29.69;60.89;;
40103;Laerm;25814;48.550;9.108;2023-10-08T05:54:21;46.04;29.48;71.63;;
40103;Laerm;25814;48.550;9.108;2023-10-08T05:57:09;37.88;30.47;54.65;;
40103;Laerm;25814;48.550;9.108;2023-10-08T05:59:38;34.04;30.36;50.78;;
40103;Laerm;25814;48.550;9.108;2023-10-08T06:02:18;33.59;30.42;52.70;;
40103;Laerm;25814;48.550;9.108;2023-10-08T06:05:01;34.03;31.33;42.11;;
40103;Laerm;25814;48.550;9.108;2023-10-08T06:07:49;38.10;31.13;55.35;;
40103;Laerm;25814;48.550;9.108;2023-10-08T06:10:28;38.83;31.58;49.89;;
40103;Laerm;25814;48.550;9.108;2023-10-08T06:12:58;37.58;31.35;54.81;;
40103;Laerm;25814;48.550;9.108;2023-10-08T06:15:46;35.57;30.47;55.31;;
40103;Laerm;25814;48.550;9.108;2023-10-08T06:18:23;34.57;30.65;50.40;;
40103;Laerm;25814;48.550;9.108;2023-10-08T06:21:05;33.27;30.77;50.04;;
40103;Laerm;25814;48.550;9.108;2023-10-08T06:23:39;36.26;30.77;53.35;;
40103;Laerm;25814;48.550;9.108;2023-10-08T06:26:07;34.22;30.62;42.74;;
40103;Laerm;25814;48.550;9.108;2023-10-08T06:28:38;34.05;31.34;42.33;;
40103;Laerm;25814;48.550;9.108;2023-10-08T06:31:05;32.96;30.74;43.14;;
40103;Laerm;25814;48.550;9.108;2023-10-08T06:33:37;33.04;30.86;48.15;;
40103;Laerm;25814;48.550;9.108;2023-10-08T06:36:04;34.21;31.71;43.37;;
40103;Laerm;25814;48.550;9.108;2023-10-08T06:38:45;35.34;30.48;46.61;;
40103;Laerm;25814;48.550;9.108;2023-10-08T06:41:15;32.79;30.64;42.60;;
40103;Laerm;25814;48.550;9.108;2023-10-08T06:43:46;36.81;31.29;51.49;;
40103;Laerm;25814;48.550;9.108;2023-10-08T06:46:13;32.68;30.87;46.79;;
40103;Laerm;25814;48.550;9.108;2023-10-08T06:48:40;34.59;31.38;41.00;;
40103;Laerm;25814;48.550;9.108;2023-10-08T06:51:11;37.99;32.20;47.45;;
40103;Laerm;25814;48.550;9.108;2023-10-08T06:53:45;34.35;31.58;45.46;;
40103;Laerm;25814;48.550;9.108;2023-10-08T06:56:12;33.54;31.57;41.09;;
40103;Laerm;25814;48.550;9.108;2023-10-08T06:58:39;35.20;31.80;43.15;;
40103;Laerm;25814;48.550;9.108;2023-10-08T07:01:11;37.27;32.27;46.77;;
40103;Laerm;25814;48.550;9.108;2023-10-08T07:03:38;35.22;32.55;43.27;;
40103;Laerm;25814;48.550;9.108;2023-10-08T07:06:04;37.48;32.45;50.15;;
40103;Laerm;25814;48.550;9.108;2023-10-08T07:08:43;34.43;31.70;42.44;;
40103;Laerm;25814;48.550;9.108;2023-10-08T07:11:20;33.57;31.53;45.08;;
40103;Laerm;25814;48.550;9.108;2023-10-08T07:13:47;48.74;32.01;72.44;;
40103;Laerm;25814;48.550;9.108;2023-10-08T07:16:13;47.30;31.96;72.60;;
40103;Laerm;25814;48.550;9.108;2023-10-08T07:18:43;36.22;32.30;53.82;;
40103;Laerm;25814;48.550;9.108;2023-10-08T07:21:18;37.10;32.15;54.23;;
40103;Laerm;25814;48.550;9.108;2023-10-08T07:23:44;34.74;32.12;52.76;;
40103;Laerm;25814;48.550;9.108;2023-10-08T07:26:20;34.10;32.14;47.58;;
40103;Laerm;25814;48.550;9.108;2023-10-08T07:28:50;35.72;32.12;46.31;;
40103;Laerm;25814;48.550;9.108;2023-10-08T07:31:23;34.89;31.93;48.03;;
40103;Laerm;25814;48.550;9.108;2023-10-08T07:33:53;35.29;32.13;46.33;;
40103;Laerm;25814;48.550;9.108;2023-10-08T07:36:26;37.04;32.68;47.81;;
40103;Laerm;25814;48.550;9.108;2023-10-08T07:38:53;36.80;32.60;46.68;;
40103;Laerm;25814;48.550;9.108;2023-10-08T07:41:20;35.65;32.28;48.95;;
40103;Laerm;25814;48.550;9.108;2023-10-08T07:43:47;38.66;32.87;65.57;;
40103;Laerm;25814;48.550;9.108;2023-10-08T07:46:26;36.71;33.00;47.68;;
40103;Laerm;25814;48.550;9.108;2023-10-08T07:48:53;51.20;32.63;72.10;;
40103;Laerm;25814;48.550;9.108;2023-10-08T07:51:20;34.29;32.15;47.09;;
40103;Laerm;25814;48.550;9.108;2023-10-08T07:53:48;46.33;31.73;71.67;;
40103;Laerm;25814;48.550;9.108;2023-10-08T07:56:14;37.13;32.66;58.63;;
40103;Laerm;25814;48.550;9.108;2023-10-08T07:58:40;46.19;32.21;72.16;;
40103;Laerm;25814;48.550;9.108;2023-10-08T08:01:07;49.04;32.52;72.96;;
40103;Laerm;25814;48.550;9.108;2023-10-08T08:03:39;38.85;32.03;57.85;;
40103;Laerm;25814;48.550;9.108;2023-10-08T08:06:10;44.21;33.07;63.56;;
40103;Laerm;25814;48.550;9.108;2023-10-08T08:08:38;43.26;33.47;53.73;;
40103;Laerm;25814;48.550;9.108;2023-10-08T08:11:05;44.28;40.16;64.75;;
40103;Laerm;25814;48.550;9.108;2023-10-08T08:13:39;38.23;33.19;52.22;;
40103;Laerm;25814;48.550;9.108;2023-10-08T08:16:08;35.69;32.94;42.89;;
40103;Laerm;25814;48.550;9.108;2023-10-08T08:18:52;38.87;33.91;53.71;;
40103;Laerm;25814;48.550;9.108;2023-10-08T08:21:22;37.03;33.29;47.73;;
40103;Laerm;25814;48.550;9.108;2023-10-08T08:23:49;47.99;33.47;58.67;;
40103;Laerm;25814;48.550;9.108;2023-10-08T08:26:21;37.80;33.30;47.80;;
40103;Laerm;25814;48.550;9.108;2023-10-08T08:28:58;38.73;32.73;54.25;;
40103;Laerm;25814;48.550;9.108;2023-10-08T08:31:26;38.57;33.33;54.22;;
40103;Laerm;25814;48.550;9.108;2023-10-08T08:33:53;39.83;33.49;59.69;;
40103;Laerm;25814;48.550;9.108;2023-10-08T08:36:20;37.50;31.73;47.81;;
40103;Laerm;25814;48.550;9.108;2023-10-08T08:38:47;35.21;31.52;42.87;;
40103;Laerm;25814;48.550;9.108;2023-10-08T08:41:14;39.71;31.39;52.42;;
40103;Laerm;25814;48.550;9.108;2023-10-08T08:43:44;36.23;31.34;59.50;;
40103;Laerm;25814;48.550;9.108;2023-10-08T08:46:12;36.96;31.84;49.62;;
40103;Laerm;25814;48.550;9.108;2023-10-08T08:48:40;37.94;31.34;61.42;;
40103;Laerm;25814;48.550;9.108;2023-10-08T08:51:07;36.37;31.72;49.23;;
40103;Laerm;25814;48.550;9.108;2023-10-08T08:53:35;36.89;32.25;46.71;;
40103;Laerm;25814;48.550;9.108;2023-10-08T08:56:01;40.19;33.04;56.60;;
40103;Laerm;25814;48.550;9.108;2023-10-08T08:58:33;48.14;34.00;71.67;;
40103;Laerm;25814;48.550;9.108;2023-10-08T09:01:00;40.72;32.78;62.89;;
40103;Laerm;25814;48.550;9.108;2023-10-08T09:03:29;47.86;31.35;75.65;;
40103;Laerm;25814;48.550;9.108;2023-10-08T09:05:59;48.01;31.80;70.91;;
40103;Laerm;25814;48.550;9.108;2023-10-08T09:08:33;51.51;31.35;80.95;;
40103;Laerm;25814;48.550;9.108;2023-10-08T09:11:00;33.36;30.52;45.03;;
40103;Laerm;25814;48.550;9.108;2023-10-08T09:13:31;33.36;30.68;48.85;;
40103;Laerm;25814;48.550;9.108;2023-10-08T09:18:29;34.41;30.64;49.39;;
40103;Laerm;25814;48.550;9.108;2023-10-08T09:21:07;34.67;31.20;46.87;;
40103;Laerm;25814;48.550;9.108;2023-10-08T09:23:39;35.14;30.40;50.69;;
40103;Laerm;25814;48.550;9.108;2023-10-08T09:26:09;35.39;30.63;46.54;;
40103;Laerm;25814;48.550;9.108;2023-10-08T09:28:37;33.24;30.50;39.57;;
40103;Laerm;25814;48.550;9.108;2023-10-08T09:31:10;35.43;29.86;54.65;;
40103;Laerm;25814;48.550;9.108;2023-10-08T09:33:37;35.29;30.43;47.37;;
40103;Laerm;25814;48.550;9.108;2023-10-08T09:36:03;36.93;31.06;51.86;;
40103;Laerm;25814;48.550;9.108;2023-10-08T09:38:35;35.40;30.49;59.51;;
40103;Laerm;25814;48.550;9.108;2023-10-08T09:41:02;35.85;30.42;57.66;;
40103;Laerm;25814;48.550;9.108;2023-10-08T09:43:31;33.47;29.92;49.60;;
40103;Laerm;25814;48.550;9.108;2023-10-08T09:46:12;36.26;30.05;49.89;;
40103;Laerm;25814;48.550;9.108;2023-10-08T09:48:41;52.52;30.54;77.85;;
40103;Laerm;25814;48.550;9.108;2023-10-08T09:51:11;52.87;30.14;78.43;;
40103;Laerm;25814;48.550;9.108;2023-10-08T09:54:03;52.92;30.21;80.77;;
40103;Laerm;25814;48.550;9.108;2023-10-08T09:56:36;35.00;29.69;52.37;;
40103;Laerm;25814;48.550;9.108;2023-10-08T09:59:04;34.83;29.74;52.42;;
40103;Laerm;25814;48.550;9.108;2023-10-08T10:01:31;32.69;29.75;50.26;;
40103;Laerm;25814;48.550;9.108;2023-10-08T10:03:57;35.72;29.92;48.65;;
40103;Laerm;25814;48.550;9.108;2023-10-08T10:06:25;49.17;31.78;63.66;;
40103;Laerm;25814;48.550;9.108;2023-10-08T10:08:55;33.87;30.20;47.08;;
40103;Laerm;25814;48.550;9.108;2023-10-08T10:11:30;36.00;29.74;44.50;;
40103;Laerm;25814;48.550;9.108;2023-10-08T10:14:00;32.72;30.17;48.82;;
40103;Laerm;25814;48.550;9.108;2023-10-08T10:16:26;33.32;30.39;47.12;;
40103;Laerm;25814;48.550;9.108;2023-10-08T10:18:56;34.52;30.42;44.82;;
40103;Laerm;25814;48.550;9.108;2023-10-08T10:21:31;32.38;29.99;41.72;;
40103;Laerm;25814;48.550;9.108;2023-10-08T10:23:58;35.96;30.27;53.64;;
40103;Laerm;25814;48.550;9.108;2023-10-08T10:26:34;32.35;29.88;45.62;;
40103;Laerm;25814;48.550;9.108;2023-10-08T10:31:41;38.15;31.28;53.50;;
40103;Laerm;25814;48.550;9.108;2023-10-08T10:34:11;32.94;30.13;46.62;;
40103;Laerm;25814;48.550;9.108;2023-10-08T10:36:39;33.62;29.82;41.07;;
40103;Laerm;25814;48.550;9.108;2023-10-08T10:39:06;32.83;29.86;43.39;;
40103;Laerm;25814;48.550;9.108;2023-10-08T10:41:44;37.24;30.36;48.93;;
40103;Laerm;25814;48.550;9.108;2023-10-08T10:44:17;34.86;29.73;46.74;;
40103;Laerm;25814;48.550;9.108;2023-10-08T10:46:45;33.04;30.16;41.52;;
40103;Laerm;25814;48.550;9.108;2023-10-08T10:49:20;36.49;31.46;44.57;;
40103;Laerm;25814;48.550;9.108;2023-10-08T10:51:50;46.31;31.89;60.52;;
40103;Laerm;25814;48.550;9.108;2023-10-08T10:54:26;45.96;29.90;72.87;;
40103;Laerm;25814;48.550;9.108;2023-10-08T10:57:01;47.49;29.95;72.53;;
40103;Laerm;25814;48.550;9.108;2023-10-08T10:59:33;37.01;30.50;60.73;;
40103;Laerm;25814;48.550;9.108;2023-10-08T11:02:05;36.05;29.91;59.99;;
40103;Laerm;25814;48.550;9.108;2023-10-08T11:04:31;44.28;29.93;70.98;;
40103;Laerm;25814;48.550;9.108;2023-10-08T11:06:59;36.79;30.37;47.30;;
40103;Laerm;25814;48.550;9.108;2023-10-08T11:09:26;51.25;30.33;64.35;;
40103;Laerm;25814;48.550;9.108;2023-10-08T11:12:03;35.56;29.95;56.08;;
40103;Laerm;25814;48.550;9.108;2023-10-08T11:14:40;32.54;29.79;45.09;;
40103;Laerm;25814;48.550;9.108;2023-10-08T11:19:37;35.50;29.70;51.41;;
40103;Laerm;25814;48.550;9.108;2023-10-08T11:22:03;35.37;30.42;43.52;;
40103;Laerm;25814;48.550;9.108;2023-10-08T11:24:32;36.47;29.75;45.69;;
40103;Laerm;25814;48.550;9.108;2023-10-08T11:27:00;34.10;29.51;48.80;;
40103;Laerm;25814;48.550;9.108;2023-10-08T11:29:47;33.90;29.91;48.78;;
40103;Laerm;25814;48.550;9.108;2023-10-08T11:32:16;39.89;29.78;59.61;;
40103;Laerm;25814;48.550;9.108;2023-10-08T11:34:46;37.06;30.56;52.08;;
40103;Laerm;25814;48.550;9.108;2023-10-08T11:37:35;42.25;30.63;66.68;;
40103;Laerm;25814;48.550;9.108;2023-10-08T11:40:03;37.81;30.53;53.52;;
40103;Laerm;25814;48.550;9.108;2023-10-08T11:42:43;41.69;30.02;62.17;;
40103;Laerm;25814;48.550;9.108;2023-10-08T11:45:10;42.02;30.42;65.80;;
40103;Laerm;25814;48.550;9.108;2023-10-08T11:47:53;38.18;30.11;51.20;;
40103;Laerm;25814;48.550;9.108;2023-10-08T11:50:26;49.93;29.75;63.72;;
40103;Laerm;25814;48.550;9.108;2023-10-08T11:53:01;45.10;30.27;57.01;;
40103;Laerm;25814;48.550;9.108;2023-10-08T11:55:29;50.01;29.73;63.87;;
40103;Laerm;25814;48.550;9.108;2023-10-08T11:57:55;36.69;30.11;52.45;;
40103;Laerm;25814;48.550;9.108;2023-10-08T12:00:22;36.85;29.71;54.41;;
40103;Laerm;25814;48.550;9.108;2023-10-08T12:02:52;36.71;30.81;48.33;;
40103;Laerm;25814;48.550;9.108;2023-10-08T12:05:21;34.48;30.14;51.76;;
40103;Laerm;25814;48.550;9.108;2023-10-08T12:07:51;36.45;30.78;49.38;;
40103;Laerm;25814;48.550;9.108;2023-10-08T12:10:21;34.26;30.49;47.25;;
40103;Laerm;25814;48.550;9.108;2023-10-08T12:12:51;32.99;30.03;42.01;;
40103;Laerm;25814;48.550;9.108;2023-10-08T12:15:21;42.57;30.74;57.51;;
40103;Laerm;25814;48.550;9.108;2023-10-08T12:17:51;37.31;30.59;51.53;;
40103;Laerm;25814;48.550;9.108;2023-10-08T12:20:37;36.60;30.20;62.64;;
40103;Laerm;25814;48.550;9.108;2023-10-08T12:23:06;36.83;30.66;52.67;;
40103;Laerm;25814;48.550;9.108;2023-10-08T12:25:38;38.57;32.02;46.08;;
40103;Laerm;25814;48.550;9.108;2023-10-08T12:28:05;34.86;30.50;47.53;;
40103;Laerm;25814;48.550;9.108;2023-10-08T12:30:31;36.46;31.10;45.59;;
40103;Laerm;25814;48.550;9.108;2023-10-08T12:33:00;43.38;31.60;64.70;;
40103;Laerm;25814;48.550;9.108;2023-10-08T12:35:27;54.07;30.97;74.97;;
40103;Laerm;25814;48.550;9.108;2023-10-08T12:37:54;41.37;31.13;57.91;;
40103;Laerm;25814;48.550;9.108;2023-10-08T12:40:20;44.17;30.44;63.11;;
40103;Laerm;25814;48.550;9.108;2023-10-08T12:42:52;49.08;30.96;73.55;;
40103;Laerm;25814;48.550;9.108;2023-10-08T12:45:20;52.74;30.74;71.78;;
40103;Laerm;25814;48.550;9.108;2023-10-08T12:47:50;51.20;30.37;73.47;;
40103;Laerm;25814;48.550;9.108;2023-10-08T12:50:17;44.63;30.43;67.71;;
40103;Laerm;25814;48.550;9.108;2023-10-08T12:52:49;51.20;31.14;66.16;;
40103;Laerm;25814;48.550;9.108;2023-10-08T12:55:21;52.68;30.76;79.82;;
40103;Laerm;25814;48.550;9.108;2023-10-08T12:57:51;52.21;30.95;79.50;;
40103;Laerm;25814;48.550;9.108;2023-10-08T13:00:22;34.29;30.30;48.24;;
40103;Laerm;25814;48.550;9.108;2023-10-08T13:02:49;39.33;31.65;51.86;;
40103;Laerm;25814;48.550;9.108;2023-10-08T13:05:20;44.19;30.45;71.23;;
40103;Laerm;25814;48.550;9.108;2023-10-08T13:07:57;41.67;30.52;54.03;;
40103;Laerm;25814;48.550;9.108;2023-10-08T13:10:29;36.12;30.67;48.10;;
40103;Laerm;25814;48.550;9.108;2023-10-08T13:12:56;37.68;30.87;54.51;;
40103;Laerm;25814;48.550;9.108;2023-10-08T13:15:23;49.50;30.82;73.72;;
40103;Laerm;25814;48.550;9.108;2023-10-08T13:17:51;35.35;30.63;56.99;;
40103;Laerm;25814;48.550;9.108;2023-10-08T13:20:18;36.61;30.57;52.62;;
40103;Laerm;25814;48.550;9.108;2023-10-08T13:22:44;37.77;31.21;47.00;;
40103;Laerm;25814;48.550;9.108;2023-10-08T13:25:11;40.47;30.55;58.13;;
40103;Laerm;25814;48.550;9.108;2023-10-08T13:27:38;37.39;31.64;48.93;;
40103;Laerm;25814;48.550;9.108;2023-10-08T13:30:07;37.42;31.17;48.70;;
40103;Laerm;25814;48.550;9.108;2023-10-08T13:32:36;57.87;31.20;79.02;;
40103;Laerm;25814;48.550;9.108;2023-10-08T13:35:06;54.13;30.56;75.63;;
40103;Laerm;25814;48.550;9.108;2023-10-08T13:37:35;55.49;31.55;73.20;;
40103;Laerm;25814;48.550;9.108;2023-10-08T13:40:01;54.90;31.09;72.51;;
40103;Laerm;25814;48.550;9.108;2023-10-08T13:42:27;51.93;30.84;74.76;;
40103;Laerm;25814;48.550;9.108;2023-10-08T13:44:55;57.34;32.36;82.28;;
40103;Laerm;25814;48.550;9.108;2023-10-08T13:47:25;60.00;33.28;74.40;;
40103;Laerm;25814;48.550;9.108;2023-10-08T13:49:55;50.42;31.02;67.60;;
40103;Laerm;25814;48.550;9.108;2023-10-08T13:52:22;55.37;30.98;71.77;;
40103;Laerm;25814;48.550;9.108;2023-10-08T13:54:52;54.90;31.83;75.90;;
40103;Laerm;25814;48.550;9.108;2023-10-08T13:57:19;56.05;31.61;72.04;;
40103;Laerm;25814;48.550;9.108;2023-10-08T13:59:46;55.48;31.27;72.42;;
40103;Laerm;25814;48.550;9.108;2023-10-08T14:02:13;57.84;31.21;72.23;;
40103;Laerm;25814;48.550;9.108;2023-10-08T14:04:43;55.84;31.11;73.41;;
40103;Laerm;25814;48.550;9.108;2023-10-08T14:07:11;53.76;30.28;76.42;;
40103;Laerm;25814;48.550;9.108;2023-10-08T14:09:43;54.93;32.28;71.67;;
40103;Laerm;25814;48.550;9.108;2023-10-08T14:12:13;53.54;31.47;67.35;;
40103;Laerm;25814;48.550;9.108;2023-10-08T14:14:40;52.04;31.06;69.26;;
40103;Laerm;25814;48.550;9.108;2023-10-08T14:17:09;55.05;31.34;75.99;;